createdAt,value
2023-05-10T00:00:18.413Z,16.08
2023-05-10T00:01:18.113Z,16.08
2023-05-10T00:02:18.161Z,16.04
2023-05-10T00:03:18.187Z,16.02
2023-05-10T00:04:18.184Z,16.01
2023-05-10T00:05:18.065Z,15.98
2023-05-10T00:06:18.054Z,15.97
2023-05-10T00:07:18.086Z,15.95
2023-05-10T00:08:18.052Z,15.94
2023-05-10T00:09:18.079Z,15.95
2023-05-10T00:10:18.243Z,15.92
2023-05-10T00:11:18.017Z,15.94
2023-05-10T00:12:18.006Z,15.94
2023-05-10T00:13:18.065Z,15.95
2023-05-10T00:14:17.990Z,15.95
2023-05-10T00:15:18.014Z,15.97
2023-05-10T00:16:17.959Z,15.98
2023-05-10T00:17:17.939Z,15.97
2023-05-10T00:18:17.940Z,15.98
2023-05-10T00:19:17.924Z,16.00
2023-05-10T00:20:18.261Z,15.98
2023-05-10T00:21:18.318Z,15.98
2023-05-10T00:22:17.895Z,15.98
2023-05-10T00:23:17.912Z,15.97
2023-05-10T00:24:17.875Z,15.97
2023-05-10T00:25:17.874Z,15.95
2023-05-10T00:26:17.865Z,15.95
2023-05-10T00:27:17.861Z,15.97
2023-05-10T00:28:17.822Z,15.94
2023-05-10T00:29:17.813Z,15.95
2023-05-10T00:30:18.030Z,15.91
2023-05-10T00:31:17.808Z,15.92
2023-05-10T00:32:17.954Z,15.91
2023-05-10T00:33:17.786Z,15.91
2023-05-10T00:34:17.772Z,15.90
2023-05-10T00:35:17.802Z,15.90
2023-05-10T00:36:17.760Z,15.88
2023-05-10T00:37:17.757Z,15.90
2023-05-10T00:38:17.776Z,15.88
2023-05-10T00:39:17.728Z,15.88
2023-05-10T00:40:18.006Z,15.88
2023-05-10T00:41:17.690Z,15.86
2023-05-10T00:42:17.686Z,15.84
2023-05-10T00:43:17.672Z,15.83
2023-05-10T00:44:17.697Z,15.83
2023-05-10T00:45:17.678Z,15.82
2023-05-10T00:46:17.709Z,15.80
2023-05-10T00:47:17.646Z,15.82
2023-05-10T00:48:17.640Z,15.82
2023-05-10T00:49:17.637Z,15.82
2023-05-10T00:50:18.129Z,15.80
2023-05-10T00:51:17.599Z,15.80
2023-05-10T00:52:17.577Z,15.80
2023-05-10T00:53:17.567Z,15.80
2023-05-10T00:54:17.569Z,15.80
2023-05-10T00:55:17.552Z,15.79
2023-05-10T00:56:17.576Z,15.79
2023-05-10T00:57:17.550Z,15.79
2023-05-10T00:58:17.528Z,15.79
2023-05-10T00:59:17.539Z,15.79
2023-05-10T01:00:17.732Z,15.79
2023-05-10T01:01:17.556Z,15.79
2023-05-10T01:02:17.583Z,15.75
2023-05-10T01:03:17.536Z,15.75
2023-05-10T01:04:17.467Z,15.72
2023-05-10T01:05:17.517Z,15.72
2023-05-10T01:06:17.449Z,15.72
2023-05-10T01:07:17.433Z,15.75
2023-05-10T01:08:17.440Z,15.72
2023-05-10T01:09:17.416Z,15.73
2023-05-10T01:10:17.622Z,15.75
2023-05-10T01:11:17.389Z,15.75
2023-05-10T01:12:17.414Z,15.75
2023-05-10T01:13:17.424Z,15.75
2023-05-10T01:14:17.411Z,15.75
2023-05-10T01:15:17.353Z,15.75
2023-05-10T01:16:17.382Z,15.73
2023-05-10T01:17:17.357Z,15.73
2023-05-10T01:18:17.339Z,15.73
2023-05-10T01:19:17.304Z,15.75
2023-05-10T01:20:17.564Z,15.75
2023-05-10T01:21:17.299Z,15.75
2023-05-10T01:22:17.272Z,15.73
2023-05-10T01:23:17.278Z,15.73
2023-05-10T01:24:17.271Z,15.70
2023-05-10T01:25:17.262Z,15.67
2023-05-10T01:26:17.265Z,15.65
2023-05-10T01:27:17.251Z,15.62
2023-05-10T01:28:17.213Z,15.58
2023-05-10T01:29:17.217Z,15.57
2023-05-10T01:30:17.200Z,15.55
2023-05-10T01:31:17.272Z,15.57
2023-05-10T01:32:17.185Z,15.55
2023-05-10T01:33:17.189Z,15.55
2023-05-10T01:34:17.173Z,15.54
2023-05-10T01:35:17.166Z,15.52
2023-05-10T01:36:17.185Z,15.52
2023-05-10T01:37:17.145Z,15.51
2023-05-10T01:38:17.141Z,15.49
2023-05-10T01:39:17.124Z,15.47
2023-05-10T01:40:17.299Z,15.47
2023-05-10T01:41:17.067Z,15.47
2023-05-10T01:42:17.114Z,15.46
2023-05-10T01:43:17.092Z,15.46
2023-05-10T01:44:17.057Z,15.46
2023-05-10T01:45:17.047Z,15.46
2023-05-10T01:46:17.045Z,15.44
2023-05-10T01:47:17.027Z,15.46
2023-05-10T01:48:17.060Z,15.42
2023-05-10T01:49:17.014Z,15.39
2023-05-10T01:50:17.314Z,15.39
2023-05-10T01:51:16.989Z,15.40
2023-05-10T01:52:16.982Z,15.37
2023-05-10T01:53:16.947Z,15.37
2023-05-10T01:54:17.331Z,15.37
2023-05-10T01:55:16.939Z,15.36
2023-05-10T01:56:16.926Z,15.36
2023-05-10T01:57:16.918Z,15.35
2023-05-10T01:58:17.765Z,15.35
2023-05-10T01:59:16.917Z,15.33
2023-05-10T02:00:17.110Z,15.33
2023-05-10T02:01:16.939Z,15.29
2023-05-10T02:02:16.885Z,15.28
2023-05-10T02:03:17.066Z,15.27
2023-05-10T02:04:16.841Z,15.28
2023-05-10T02:05:16.860Z,15.25
2023-05-10T02:06:16.847Z,15.25
2023-05-10T02:07:16.834Z,15.24
2023-05-10T02:08:16.823Z,15.24
2023-05-10T02:09:16.785Z,15.24
2023-05-10T02:10:17.027Z,15.24
2023-05-10T02:11:16.776Z,15.24
2023-05-10T02:12:16.791Z,15.21
2023-05-10T02:13:16.834Z,15.19
2023-05-10T02:14:16.739Z,15.18
2023-05-10T02:15:16.730Z,15.19
2023-05-10T02:16:16.755Z,15.19
2023-05-10T02:17:16.730Z,15.21
2023-05-10T02:18:16.714Z,15.21
2023-05-10T02:19:16.717Z,15.19
2023-05-10T02:20:16.952Z,15.07
2023-05-10T02:21:16.696Z,14.92
2023-05-10T02:22:16.681Z,14.81
2023-05-10T02:23:16.679Z,14.68
2023-05-10T02:24:16.680Z,14.51
2023-05-10T02:25:16.637Z,14.45
2023-05-10T02:26:16.618Z,14.43
2023-05-10T02:27:16.623Z,14.32
2023-05-10T02:28:16.649Z,14.25
2023-05-10T02:29:16.609Z,14.22
2023-05-10T02:30:17.189Z,14.18
2023-05-10T02:31:16.587Z,14.18
2023-05-10T02:32:16.680Z,14.14
2023-05-10T02:33:16.549Z,14.11
2023-05-10T02:34:16.541Z,14.08
2023-05-10T02:35:16.542Z,14.11
2023-05-10T02:36:16.554Z,14.07
2023-05-10T02:37:16.522Z,14.05
2023-05-10T02:38:16.494Z,14.05
2023-05-10T02:39:16.500Z,14.03
2023-05-10T02:40:16.718Z,14.03
2023-05-10T02:41:16.473Z,14.00
2023-05-10T02:42:16.505Z,13.99
2023-05-10T02:43:16.468Z,13.99
2023-05-10T02:44:16.441Z,14.00
2023-05-10T02:45:16.498Z,14.00
2023-05-10T02:46:16.463Z,14.04
2023-05-10T02:47:16.417Z,14.04
2023-05-10T02:48:16.421Z,14.07
2023-05-10T02:49:16.392Z,14.10
2023-05-10T02:50:16.845Z,14.11
2023-05-10T02:51:16.379Z,14.15
2023-05-10T02:52:16.348Z,14.20
2023-05-10T02:53:16.342Z,14.20
2023-05-10T02:54:16.348Z,14.22
2023-05-10T02:55:16.336Z,14.23
2023-05-10T02:56:16.352Z,14.25
2023-05-10T02:57:16.365Z,14.26
2023-05-10T02:58:16.326Z,14.25
2023-05-10T02:59:16.294Z,14.29
2023-05-10T03:00:16.592Z,14.28
2023-05-10T03:01:16.310Z,14.28
2023-05-10T03:02:16.253Z,14.29
2023-05-10T03:03:16.244Z,14.30
2023-05-10T03:04:16.276Z,14.28
2023-05-10T03:05:16.256Z,14.28
2023-05-10T03:06:16.245Z,14.26
2023-05-10T03:07:16.218Z,14.23
2023-05-10T03:08:16.205Z,14.20
2023-05-10T03:09:16.287Z,14.14
2023-05-10T03:10:16.366Z,14.11
2023-05-10T03:11:16.198Z,14.10
2023-05-10T03:12:16.192Z,14.05
2023-05-10T03:13:16.286Z,14.08
2023-05-10T03:14:16.141Z,14.05
2023-05-10T03:15:16.152Z,13.96
2023-05-10T03:16:16.152Z,13.93
2023-05-10T03:17:16.147Z,13.89
2023-05-10T03:18:16.092Z,13.86
2023-05-10T03:19:16.098Z,13.81
2023-05-10T03:20:16.372Z,13.79
2023-05-10T03:21:16.084Z,13.79
2023-05-10T03:22:16.068Z,13.77
2023-05-10T03:23:16.061Z,13.74
2023-05-10T03:24:16.078Z,13.74
2023-05-10T03:25:16.033Z,13.74
2023-05-10T03:26:16.018Z,13.74
2023-05-10T03:27:16.024Z,13.75
2023-05-10T03:28:16.012Z,13.74
2023-05-10T03:29:15.986Z,13.75
2023-05-10T03:30:16.156Z,13.78
2023-05-10T03:31:15.994Z,13.77
2023-05-10T03:32:15.951Z,13.74
2023-05-10T03:33:15.957Z,13.72
2023-05-10T03:34:15.952Z,13.65
2023-05-10T03:35:15.934Z,13.63
2023-05-10T03:36:15.899Z,13.60
2023-05-10T03:37:15.904Z,13.59
2023-05-10T03:38:15.901Z,13.60
2023-05-10T03:39:15.903Z,13.62
2023-05-10T03:40:16.045Z,13.63
2023-05-10T03:41:15.850Z,13.65
2023-05-10T03:42:15.839Z,13.68
2023-05-10T03:43:15.836Z,13.71
2023-05-10T03:44:15.837Z,13.72
2023-05-10T03:45:15.871Z,13.74
2023-05-10T03:46:15.821Z,13.71
2023-05-10T03:47:15.819Z,13.72
2023-05-10T03:48:15.804Z,13.71
2023-05-10T03:49:15.803Z,13.71
2023-05-10T03:50:16.066Z,13.70
2023-05-10T03:51:15.796Z,13.72
2023-05-10T03:52:15.752Z,13.72
2023-05-10T03:53:15.728Z,13.74
2023-05-10T03:54:15.711Z,13.74
2023-05-10T03:55:15.726Z,13.77
2023-05-10T03:56:15.725Z,13.79
2023-05-10T03:57:15.696Z,13.81
2023-05-10T03:58:15.702Z,13.81
2023-05-10T03:59:15.663Z,13.79
2023-05-10T04:00:15.996Z,13.78
2023-05-10T04:01:15.686Z,13.78
2023-05-10T04:02:15.720Z,13.79
2023-05-10T04:03:15.762Z,13.79
2023-05-10T04:04:15.659Z,13.79
2023-05-10T04:05:15.646Z,13.78
2023-05-10T04:06:15.638Z,13.78
2023-05-10T04:07:15.610Z,13.81
2023-05-10T04:08:15.614Z,13.83
2023-05-10T04:09:15.569Z,13.83
2023-05-10T04:10:15.700Z,13.79
2023-05-10T04:11:15.570Z,13.78
2023-05-10T04:12:15.567Z,13.74
2023-05-10T04:13:15.541Z,13.72
2023-05-10T04:14:15.564Z,13.72
2023-05-10T04:15:15.501Z,13.67
2023-05-10T04:16:15.554Z,13.62
2023-05-10T04:17:15.522Z,13.56
2023-05-10T04:18:15.487Z,13.54
2023-05-10T04:19:15.500Z,13.50
2023-05-10T04:20:15.766Z,13.50
2023-05-10T04:21:15.499Z,13.47
2023-05-10T04:22:15.455Z,13.47
2023-05-10T04:23:15.441Z,13.42
2023-05-10T04:24:15.409Z,13.35
2023-05-10T04:25:15.437Z,13.35
2023-05-10T04:26:15.431Z,13.30
2023-05-10T04:27:15.381Z,13.28
2023-05-10T04:28:15.392Z,13.28
2023-05-10T04:29:15.365Z,13.28
2023-05-10T04:30:15.560Z,13.28
2023-05-10T04:31:15.403Z,13.25
2023-05-10T04:32:15.333Z,13.23
2023-05-10T04:33:15.365Z,13.20
2023-05-10T04:34:15.330Z,13.19
2023-05-10T04:35:15.307Z,13.18
2023-05-10T04:36:15.297Z,13.16
2023-05-10T04:37:15.319Z,13.13
2023-05-10T04:38:15.269Z,13.13
2023-05-10T04:39:15.265Z,13.13
2023-05-10T04:40:15.514Z,13.12
2023-05-10T04:41:15.256Z,13.11
2023-05-10T04:42:15.268Z,13.09
2023-05-10T04:43:15.222Z,13.11
2023-05-10T04:44:15.273Z,13.11
2023-05-10T04:45:15.203Z,13.12
2023-05-10T04:46:15.250Z,13.13
2023-05-10T04:47:15.205Z,13.13
2023-05-10T04:48:15.190Z,13.12
2023-05-10T04:49:15.156Z,13.15
2023-05-10T04:50:15.339Z,13.16
2023-05-10T04:51:15.151Z,13.15
2023-05-10T04:52:15.114Z,13.15
2023-05-10T04:53:15.987Z,13.13
2023-05-10T04:54:15.133Z,13.12
2023-05-10T04:55:15.099Z,13.13
2023-05-10T04:56:15.085Z,13.13
2023-05-10T04:57:15.094Z,13.15
2023-05-10T04:58:15.070Z,13.15
2023-05-10T04:59:15.071Z,13.18
2023-05-10T05:00:15.289Z,13.18
2023-05-10T05:01:15.085Z,13.19
2023-05-10T05:02:15.038Z,13.20
2023-05-10T05:03:15.113Z,13.18
2023-05-10T05:04:14.995Z,13.19
2023-05-10T05:05:15.020Z,13.18
2023-05-10T05:06:14.972Z,13.16
2023-05-10T05:07:14.965Z,13.18
2023-05-10T05:08:14.976Z,13.15
2023-05-10T05:09:14.962Z,13.16
2023-05-10T05:10:15.090Z,13.16
2023-05-10T05:11:14.971Z,13.15
2023-05-10T05:12:14.977Z,13.16
2023-05-10T05:13:14.944Z,13.13
2023-05-10T05:14:14.897Z,13.15
2023-05-10T05:15:14.892Z,13.13
2023-05-10T05:16:14.899Z,13.15
2023-05-10T05:17:14.889Z,13.18
2023-05-10T05:18:14.847Z,13.19
2023-05-10T05:19:14.845Z,13.18
2023-05-10T05:20:15.014Z,13.20
2023-05-10T05:21:14.839Z,13.22
2023-05-10T05:22:14.819Z,13.27
2023-05-10T05:23:14.858Z,13.25
2023-05-10T05:24:14.807Z,13.27
2023-05-10T05:25:14.792Z,13.27
2023-05-10T05:26:14.801Z,13.30
2023-05-10T05:27:14.780Z,13.33
2023-05-10T05:28:14.759Z,13.33
2023-05-10T05:29:14.779Z,13.38
2023-05-10T05:30:14.864Z,13.39
2023-05-10T05:31:14.855Z,13.41
2023-05-10T05:32:14.714Z,13.42
2023-05-10T05:33:14.711Z,13.38
2023-05-10T05:34:14.702Z,13.39
2023-05-10T05:35:14.779Z,13.39
2023-05-10T05:36:14.682Z,13.41
2023-05-10T05:37:14.681Z,13.44
2023-05-10T05:38:14.654Z,13.46
2023-05-10T05:39:14.660Z,13.50
2023-05-10T05:40:14.644Z,13.52
2023-05-10T05:41:14.636Z,13.54
2023-05-10T05:42:14.594Z,13.57
2023-05-10T05:43:14.629Z,13.60
2023-05-10T05:44:14.603Z,13.62
2023-05-10T05:45:15.019Z,13.63
2023-05-10T05:46:14.637Z,13.67
2023-05-10T05:47:14.609Z,13.67
2023-05-10T05:48:14.601Z,13.65
2023-05-10T05:49:14.600Z,13.65
2023-05-10T05:50:14.632Z,13.65
2023-05-10T05:51:14.528Z,13.68
2023-05-10T05:52:14.507Z,13.67
2023-05-10T05:53:14.538Z,13.68
2023-05-10T05:54:14.485Z,13.67
2023-05-10T05:55:14.561Z,13.67
2023-05-10T05:56:14.458Z,13.65
2023-05-10T05:57:14.457Z,13.68
2023-05-10T05:58:14.440Z,13.71
2023-05-10T05:59:14.925Z,13.72
2023-05-10T06:00:14.426Z,13.75
2023-05-10T06:01:14.455Z,13.75
2023-05-10T06:02:14.441Z,13.75
2023-05-10T06:03:14.471Z,13.77
2023-05-10T06:04:14.424Z,13.72
2023-05-10T06:05:14.580Z,13.72
2023-05-10T06:06:14.378Z,13.71
2023-05-10T06:07:14.373Z,13.70
2023-05-10T06:08:14.340Z,13.68
2023-05-10T06:09:14.331Z,13.65
2023-05-10T06:10:14.376Z,13.67
2023-05-10T06:11:14.343Z,13.67
2023-05-10T06:12:14.329Z,13.67
2023-05-10T06:13:14.350Z,13.67
2023-05-10T06:14:14.310Z,13.68
2023-05-10T06:15:14.409Z,13.72
2023-05-10T06:16:14.319Z,13.74
2023-05-10T06:17:14.247Z,13.75
2023-05-10T06:18:14.250Z,13.78
2023-05-10T06:19:14.245Z,13.79
2023-05-10T06:20:14.236Z,13.81
2023-05-10T06:21:14.212Z,13.81
2023-05-10T06:22:14.230Z,13.79
2023-05-10T06:23:14.266Z,13.79
2023-05-10T06:24:14.194Z,13.77
2023-05-10T06:25:14.272Z,13.77
2023-05-10T06:26:14.184Z,13.77
2023-05-10T06:27:14.200Z,13.75
2023-05-10T06:28:14.151Z,13.79
2023-05-10T06:29:14.163Z,13.79
2023-05-10T06:30:14.143Z,13.83
2023-05-10T06:31:14.173Z,13.86
2023-05-10T06:32:14.101Z,13.89
2023-05-10T06:33:14.121Z,13.89
2023-05-10T06:34:14.079Z,13.89
2023-05-10T06:35:14.147Z,13.89
2023-05-10T06:36:14.085Z,13.87
2023-05-10T06:37:14.047Z,13.85
2023-05-10T06:38:14.041Z,13.83
2023-05-10T06:39:14.052Z,13.83
2023-05-10T06:40:14.036Z,13.87
2023-05-10T06:41:14.019Z,13.90
2023-05-10T06:42:14.018Z,13.92
2023-05-10T06:43:14.011Z,13.92
2023-05-10T06:44:13.995Z,13.95
2023-05-10T06:45:14.000Z,13.92
2023-05-10T06:46:13.982Z,13.93
2023-05-10T06:47:13.946Z,13.96
2023-05-10T06:48:13.994Z,13.97
2023-05-10T06:49:13.927Z,13.99
2023-05-10T06:50:13.970Z,14.04
2023-05-10T06:51:13.907Z,14.07
2023-05-10T06:52:13.913Z,14.11
2023-05-10T06:53:13.901Z,14.17
2023-05-10T06:54:13.890Z,14.15
2023-05-10T06:55:13.931Z,14.17
2023-05-10T06:56:14.076Z,14.18
2023-05-10T06:57:27.666Z,14.15
2023-05-10T06:58:13.841Z,14.17
2023-05-10T06:59:13.890Z,14.14
2023-05-10T07:00:13.830Z,14.14
2023-05-10T07:01:13.883Z,14.15
2023-05-10T07:02:13.914Z,14.17
2023-05-10T07:03:13.858Z,14.18
2023-05-10T07:04:13.786Z,14.18
2023-05-10T07:05:13.760Z,14.22
2023-05-10T07:06:29.240Z,14.23
2023-05-10T07:07:13.763Z,14.25
2023-05-10T07:08:13.786Z,14.28
2023-05-10T07:09:13.723Z,14.29
2023-05-10T07:10:13.727Z,14.30
2023-05-10T07:11:13.721Z,14.30
2023-05-10T07:12:15.397Z,14.26
2023-05-10T07:13:13.785Z,14.28
2023-05-10T07:14:13.698Z,14.29
2023-05-10T07:15:13.667Z,14.30
2023-05-10T07:16:13.717Z,14.30
2023-05-10T07:17:13.742Z,14.35
2023-05-10T07:18:13.682Z,14.33
2023-05-10T07:19:13.649Z,14.30
2023-05-10T07:20:13.629Z,14.29
2023-05-10T07:21:13.728Z,14.30
2023-05-10T07:22:13.597Z,14.29
2023-05-10T07:23:13.581Z,14.28
2023-05-10T07:24:13.586Z,14.28
2023-05-10T07:25:13.603Z,14.25
2023-05-10T07:26:13.565Z,14.25
2023-05-10T07:27:13.563Z,14.25
2023-05-10T07:28:13.536Z,14.22
2023-05-10T07:29:13.533Z,14.17
2023-05-10T07:30:13.518Z,14.15
2023-05-10T07:31:13.506Z,14.14
2023-05-10T07:32:13.617Z,14.14
2023-05-10T07:33:13.527Z,14.12
2023-05-10T07:34:13.476Z,14.11
2023-05-10T07:35:13.481Z,14.10
2023-05-10T07:36:13.439Z,14.05
2023-05-10T07:37:13.436Z,14.07
2023-05-10T07:38:13.449Z,14.03
2023-05-10T07:39:18.672Z,14.00
2023-05-10T07:40:13.445Z,14.00
2023-05-10T07:41:13.389Z,14.04
2023-05-10T07:42:13.388Z,14.04
2023-05-10T07:43:13.372Z,14.05
2023-05-10T07:44:13.397Z,14.07
2023-05-10T07:45:13.373Z,14.10
2023-05-10T07:46:13.374Z,14.11
2023-05-10T07:47:13.353Z,14.14
2023-05-10T07:48:13.316Z,14.14
2023-05-10T07:49:13.315Z,14.15
2023-05-10T07:50:13.340Z,14.18
2023-05-10T07:51:13.281Z,14.20
2023-05-10T07:52:13.284Z,14.23
2023-05-10T07:53:13.279Z,14.26
2023-05-10T07:54:13.270Z,14.29
2023-05-10T07:55:13.270Z,14.33
2023-05-10T07:56:13.297Z,14.36
2023-05-10T07:57:13.236Z,14.37
2023-05-10T07:58:13.229Z,14.41
2023-05-10T07:59:13.222Z,14.45
2023-05-10T08:00:13.195Z,14.45
2023-05-10T08:01:13.179Z,14.48
2023-05-10T08:02:13.261Z,14.48
2023-05-10T08:03:13.308Z,14.47
2023-05-10T08:04:13.223Z,14.45
2023-05-10T08:05:13.151Z,14.47
2023-05-10T08:06:13.138Z,14.48
2023-05-10T08:07:13.137Z,14.45
2023-05-10T08:08:13.162Z,14.43
2023-05-10T08:09:13.109Z,14.40
2023-05-10T08:10:13.107Z,14.40
2023-05-10T08:11:13.122Z,14.37
2023-05-10T08:12:13.082Z,14.41
2023-05-10T08:13:13.080Z,14.40
2023-05-10T08:14:13.218Z,14.41
2023-05-10T08:15:13.058Z,14.41
2023-05-10T08:16:13.085Z,14.41
2023-05-10T08:17:13.014Z,14.40
2023-05-10T08:18:13.084Z,14.41
2023-05-10T08:19:13.039Z,14.41
2023-05-10T08:20:13.020Z,14.43
2023-05-10T08:21:12.986Z,14.41
2023-05-10T08:22:12.998Z,14.43
2023-05-10T08:23:13.008Z,14.41
2023-05-10T08:24:12.966Z,14.41
2023-05-10T08:25:12.959Z,14.40
2023-05-10T08:26:12.945Z,14.37
2023-05-10T08:27:12.941Z,14.36
2023-05-10T08:28:12.963Z,14.35
2023-05-10T08:29:12.931Z,14.30
2023-05-10T08:30:12.904Z,14.29
2023-05-10T08:31:12.898Z,14.25
2023-05-10T08:32:12.881Z,14.22
2023-05-10T08:33:12.923Z,14.18
2023-05-10T08:34:12.872Z,14.18
2023-05-10T08:35:12.846Z,14.17
2023-05-10T08:36:12.823Z,14.17
2023-05-10T08:37:12.814Z,14.18
2023-05-10T08:38:12.806Z,14.22
2023-05-10T08:39:19.466Z,14.23
2023-05-10T08:40:12.837Z,14.26
2023-05-10T08:41:12.776Z,14.29
2023-05-10T08:42:12.927Z,14.26
2023-05-10T08:43:12.775Z,14.22
2023-05-10T08:44:12.849Z,14.18
2023-05-10T08:45:12.778Z,14.18
2023-05-10T08:46:12.770Z,14.20
2023-05-10T08:47:12.818Z,14.18
2023-05-10T08:48:12.745Z,14.17
2023-05-10T08:49:12.687Z,14.20
2023-05-10T08:50:12.686Z,14.20
2023-05-10T08:51:12.704Z,14.22
2023-05-10T08:52:12.676Z,14.26
2023-05-10T08:53:12.684Z,14.33
2023-05-10T08:54:12.663Z,14.37
2023-05-10T08:55:12.649Z,14.35
2023-05-10T08:56:12.627Z,14.41
2023-05-10T08:57:12.617Z,14.37
2023-05-10T08:58:12.642Z,14.40
2023-05-10T08:59:12.581Z,14.43
2023-05-10T09:00:12.587Z,14.37
2023-05-10T09:01:12.621Z,14.36
2023-05-10T09:02:12.563Z,14.33
2023-05-10T09:03:12.575Z,14.29
2023-05-10T09:04:12.647Z,14.23
2023-05-10T09:05:12.618Z,14.22
2023-05-10T09:06:12.536Z,14.25
2023-05-10T09:07:12.513Z,14.26
2023-05-10T09:08:12.751Z,14.26
2023-05-10T09:09:12.510Z,14.28
2023-05-10T09:10:12.498Z,14.30
2023-05-10T09:11:12.481Z,14.32
2023-05-10T09:12:12.498Z,14.33
2023-05-10T09:13:12.457Z,14.32
2023-05-10T09:14:12.462Z,14.30
2023-05-10T09:15:12.446Z,14.32
2023-05-10T09:16:21.144Z,14.35
2023-05-10T09:17:12.416Z,14.36
2023-05-10T09:18:12.499Z,14.33
2023-05-10T09:19:12.883Z,14.29
2023-05-10T09:20:12.397Z,14.25
2023-05-10T09:21:12.393Z,14.26
2023-05-10T09:22:12.389Z,14.22
2023-05-10T09:23:12.356Z,14.22
2023-05-10T09:24:12.356Z,14.18
2023-05-10T09:25:12.348Z,14.22
2023-05-10T09:26:12.336Z,14.25
2023-05-10T09:27:12.321Z,14.26
2023-05-10T09:28:12.326Z,14.29
2023-05-10T09:29:12.304Z,14.29
2023-05-10T09:30:12.268Z,14.32
2023-05-10T09:31:12.334Z,14.35
2023-05-10T09:32:13.778Z,14.33
2023-05-10T09:33:12.264Z,14.33
2023-05-10T09:34:12.245Z,14.30
2023-05-10T09:35:12.251Z,14.33
2023-05-10T09:36:12.261Z,14.36
2023-05-10T09:37:12.278Z,14.41
2023-05-10T09:38:12.224Z,14.48
2023-05-10T09:39:12.176Z,14.53
2023-05-10T09:40:12.175Z,14.58
2023-05-10T09:41:12.169Z,14.65
2023-05-10T09:42:12.213Z,14.69
2023-05-10T09:43:12.208Z,14.72
2023-05-10T09:44:12.155Z,14.82
2023-05-10T09:45:12.160Z,14.91
2023-05-10T09:46:12.221Z,14.99
2023-05-10T09:47:12.121Z,15.04
2023-05-10T09:48:12.129Z,15.07
2023-05-10T09:49:12.122Z,15.15
2023-05-10T09:50:12.084Z,15.15
2023-05-10T09:51:12.071Z,15.15
2023-05-10T09:52:12.057Z,15.17
2023-05-10T09:53:12.044Z,15.19
2023-05-10T09:54:12.043Z,15.09
2023-05-10T09:55:12.061Z,15.06
2023-05-10T09:56:12.020Z,15.06
2023-05-10T09:57:12.021Z,15.06
2023-05-10T09:58:12.102Z,14.99
2023-05-10T09:59:11.996Z,14.92
2023-05-10T10:00:11.969Z,14.91
2023-05-10T10:01:12.006Z,14.91
2023-05-10T10:02:11.948Z,14.91
2023-05-10T10:03:11.949Z,14.89
2023-05-10T10:04:11.938Z,14.89
2023-05-10T10:05:12.062Z,14.91
2023-05-10T10:06:26.390Z,14.91
2023-05-10T10:07:11.937Z,14.92
2023-05-10T10:08:11.913Z,14.94
2023-05-10T10:09:11.908Z,14.92
2023-05-10T10:10:11.900Z,14.91
2023-05-10T10:11:11.879Z,14.89
2023-05-10T10:12:11.866Z,14.85
2023-05-10T10:13:11.872Z,14.82
2023-05-10T10:14:11.837Z,14.82
2023-05-10T10:15:11.834Z,14.78
2023-05-10T10:16:11.861Z,14.72
2023-05-10T10:17:11.819Z,14.72
2023-05-10T10:18:11.792Z,14.66
2023-05-10T10:19:11.800Z,14.63
2023-05-10T10:20:12.392Z,14.62
2023-05-10T10:21:11.747Z,14.60
2023-05-10T10:22:11.795Z,14.60
2023-05-10T10:23:11.747Z,14.58
2023-05-10T10:24:11.745Z,14.58
2023-05-10T10:25:11.716Z,14.58
2023-05-10T10:26:11.740Z,14.58
2023-05-10T10:27:11.721Z,14.59
2023-05-10T10:28:11.720Z,14.60
2023-05-10T10:29:11.683Z,14.54
2023-05-10T10:30:11.680Z,14.48
2023-05-10T10:31:11.725Z,14.45
2023-05-10T10:32:11.639Z,14.44
2023-05-10T10:33:24.316Z,14.44
2023-05-10T10:34:11.618Z,14.45
2023-05-10T10:35:11.611Z,14.50
2023-05-10T10:36:11.616Z,14.45
2023-05-10T10:37:11.596Z,14.48
2023-05-10T10:38:11.575Z,14.48
2023-05-10T10:39:11.994Z,14.48
2023-05-10T10:40:11.564Z,14.50
2023-05-10T10:41:11.557Z,14.53
2023-05-10T10:42:11.559Z,14.55
2023-05-10T10:43:11.543Z,14.62
2023-05-10T10:44:11.530Z,14.66
2023-05-10T10:45:11.546Z,14.73
2023-05-10T10:46:11.617Z,14.81
2023-05-10T10:47:11.724Z,14.86
2023-05-10T10:48:11.500Z,14.94
2023-05-10T10:49:11.489Z,15.02
2023-05-10T10:50:11.454Z,15.06
2023-05-10T10:51:12.893Z,15.04
2023-05-10T10:52:11.440Z,15.04
2023-05-10T10:53:11.459Z,14.99
2023-05-10T10:54:11.480Z,15.00
2023-05-10T10:55:11.433Z,15.02
2023-05-10T10:56:11.405Z,15.02
2023-05-10T10:57:11.427Z,15.03
2023-05-10T10:58:11.378Z,15.03
2023-05-10T10:59:11.385Z,15.02
2023-05-10T11:00:11.355Z,15.07
2023-05-10T11:01:11.413Z,15.09
2023-05-10T11:02:11.337Z,15.14
2023-05-10T11:03:11.429Z,15.17
2023-05-10T11:04:11.410Z,15.17
2023-05-10T11:05:11.320Z,15.21
2023-05-10T11:06:11.310Z,15.27
2023-05-10T11:07:11.299Z,15.36
2023-05-10T11:08:11.283Z,15.43
2023-05-10T11:09:11.323Z,15.52
2023-05-10T11:10:11.259Z,15.55
2023-05-10T11:11:11.260Z,15.59
2023-05-10T11:12:11.238Z,15.64
2023-05-10T11:13:11.214Z,15.65
2023-05-10T11:14:11.206Z,15.70
2023-05-10T11:15:11.228Z,15.72
2023-05-10T11:16:11.224Z,15.73
2023-05-10T11:17:11.195Z,15.77
2023-05-10T11:18:11.206Z,15.80
2023-05-10T11:19:11.198Z,15.86
2023-05-10T11:20:11.178Z,15.86
2023-05-10T11:21:11.176Z,15.94
2023-05-10T11:22:11.112Z,15.95
2023-05-10T11:23:11.128Z,15.97
2023-05-10T11:24:11.097Z,16.02
2023-05-10T11:25:11.138Z,16.05
2023-05-10T11:26:11.090Z,16.10
2023-05-10T11:27:11.361Z,16.16
2023-05-10T11:28:11.086Z,16.24
2023-05-10T11:29:11.055Z,16.32
2023-05-10T11:30:11.055Z,16.38
2023-05-10T11:31:11.076Z,16.46
2023-05-10T11:32:11.037Z,16.51
2023-05-10T11:33:11.061Z,16.56
2023-05-10T11:34:11.003Z,16.64
2023-05-10T11:35:11.010Z,16.68
2023-05-10T11:36:10.982Z,16.71
2023-05-10T11:37:10.975Z,16.68
2023-05-10T11:38:10.986Z,16.64
2023-05-10T11:39:10.991Z,16.64
2023-05-10T11:40:10.936Z,16.60
2023-05-10T11:41:10.945Z,16.58
2023-05-10T11:42:10.925Z,16.54
2023-05-10T11:43:10.920Z,16.49
2023-05-10T11:44:10.914Z,16.49
2023-05-10T11:45:11.310Z,16.43
2023-05-10T11:46:10.921Z,16.41
2023-05-10T11:47:10.881Z,16.46
2023-05-10T11:48:10.903Z,16.50
2023-05-10T11:49:10.888Z,16.51
2023-05-10T11:50:10.880Z,16.54
2023-05-10T11:51:10.868Z,16.57
2023-05-10T11:52:10.849Z,16.65
2023-05-10T11:53:10.818Z,16.66
2023-05-10T11:54:10.807Z,16.66
2023-05-10T11:55:10.816Z,16.68
2023-05-10T11:56:10.784Z,16.68
2023-05-10T11:57:10.808Z,16.69
2023-05-10T11:58:10.755Z,16.76
2023-05-10T11:59:10.746Z,16.79
2023-05-10T12:00:10.761Z,16.84
2023-05-10T12:01:10.832Z,16.86
2023-05-10T12:02:10.721Z,16.93
2023-05-10T12:03:10.818Z,17.01
2023-05-10T12:04:10.828Z,17.09
2023-05-10T12:05:10.728Z,17.14
2023-05-10T12:06:10.679Z,17.16
2023-05-10T12:07:10.672Z,17.16
2023-05-10T12:08:10.694Z,17.23
2023-05-10T12:09:10.698Z,17.26
2023-05-10T12:10:10.648Z,17.29
2023-05-10T12:11:10.643Z,17.26
2023-05-10T12:12:10.625Z,17.23
2023-05-10T12:13:10.624Z,17.29
2023-05-10T12:14:10.604Z,17.24
2023-05-10T12:15:10.637Z,17.24
2023-05-10T12:16:10.602Z,17.27
2023-05-10T12:17:10.569Z,17.31
2023-05-10T12:18:10.569Z,17.41
2023-05-10T12:19:10.595Z,17.48
2023-05-10T12:20:10.546Z,17.59
2023-05-10T12:21:10.660Z,17.67
2023-05-10T12:22:10.505Z,17.68
2023-05-10T12:23:10.596Z,17.68
2023-05-10T12:24:10.497Z,17.68
2023-05-10T12:25:10.501Z,17.70
2023-05-10T12:26:10.482Z,17.71
2023-05-10T12:27:10.487Z,17.68
2023-05-10T12:28:10.471Z,17.65
2023-05-10T12:29:10.467Z,17.67
2023-05-10T12:30:10.432Z,17.67
2023-05-10T12:31:10.438Z,17.60
2023-05-10T12:32:10.433Z,17.60
2023-05-10T12:33:10.419Z,17.60
2023-05-10T12:34:10.388Z,17.60
2023-05-10T12:35:10.396Z,17.59
2023-05-10T12:36:10.364Z,17.60
2023-05-10T12:37:10.369Z,17.64
2023-05-10T12:38:10.411Z,17.67
2023-05-10T12:39:10.344Z,17.70
2023-05-10T12:40:10.386Z,17.65
2023-05-10T12:41:10.366Z,17.60
2023-05-10T12:42:10.338Z,17.56
2023-05-10T12:43:10.307Z,17.52
2023-05-10T12:44:10.312Z,17.49
2023-05-10T12:45:10.292Z,17.49
2023-05-10T12:46:10.341Z,17.46
2023-05-10T12:47:10.287Z,17.46
2023-05-10T12:48:10.356Z,17.48
2023-05-10T12:49:10.237Z,17.48
2023-05-10T12:50:10.308Z,17.45
2023-05-10T12:51:10.211Z,17.42
2023-05-10T12:52:10.201Z,17.39